Time;durP1;ratioP1;P1;durP2;ratioP2;P2;SDS_P1;SDS_P2;PMS_P1;PMS_P2;Temp;Humidity;BMP_temperature;BMP_pressure;BME280_temperature;BME280_humidity;BME280_pressure;Samples;Min_cycle;Max_cycle;Signal;HPM_P1;HPM_P2
2023/06/26 00:00:09;;;;;;;3.33;1.27;;;;;;;17.74;100.00;100835.09;5021119;28;20052;-48
2023/06/26 00:02:34;;;;;;;1.75;0.75;;;;;;;17.74;100.00;100829.72;5015121;28;20254;-47
2023/06/26 00:05:02;;;;;;;3.00;0.35;;;;;;;17.61;100.00;100831.56;5021147;28;20147;-50
2023/06/26 00:07:33;;;;;;;2.63;0.30;;;;;;;17.57;100.00;100832.25;5034923;28;20768;-45
2023/06/26 00:09:59;;;;;;;;;;;;;;;17.57;100.00;100833.03;5018629;28;20029;-47
2023/06/26 00:12:24;;;;;;;1.48;0.20;;;;;;;17.61;100.00;100839.59;5019577;28;19994;-44
2023/06/26 00:14:49;;;;;;;3.13;0.45;;;;;;;17.56;100.00;100831.44;5020623;28;20029;-47
2023/06/26 00:17:15;;;;;;;2.28;0.65;;;;;;;17.69;100.00;100837.66;5023734;28;20487;-45
2023/06/26 00:19:40;;;;;;;4.63;1.20;;;;;;;17.67;100.00;100835.19;5023371;28;20024;-46
2023/06/26 00:22:05;;;;;;;2.53;0.28;;;;;;;17.51;100.00;100836.66;5018243;28;20037;-45
2023/06/26 00:24:30;;;;;;;2.13;1.00;;;;;;;17.47;100.00;100827.41;5026965;28;20021;-46
2023/06/26 00:26:56;;;;;;;2.53;0.45;;;;;;;17.49;100.00;100836.06;5027659;28;20029;-47
2023/06/26 00:29:21;;;;;;;2.75;0.25;;;;;;;17.53;100.00;100839.94;5021323;28;20535;-49
2023/06/26 00:31:46;;;;;;;4.18;0.45;;;;;;;17.40;100.00;100837.44;5026435;28;20040;-49
2023/06/26 00:34:12;;;;;;;6.22;0.40;;;;;;;17.39;100.00;100843.81;5026758;28;20702;-50
2023/06/26 00:36:37;;;;;;;5.50;0.50;;;;;;;17.40;100.00;100850.84;5030074;28;20040;-50
2023/06/26 00:39:03;;;;;;;3.40;0.65;;;;;;;17.37;100.00;100856.63;5021451;28;20095;-47
2023/06/26 00:41:29;;;;;;;3.85;0.30;;;;;;;17.36;100.00;100852.34;5028212;28;20846;-47
2023/06/26 00:43:54;;;;;;;3.88;0.50;;;;;;;17.39;100.00;100857.22;5027354;28;20033;-46
2023/06/26 00:46:20;;;;;;;0.73;0.20;;;;;;;17.40;100.00;100859.69;5021937;28;20040;-46
2023/06/26 00:48:48;;;;;;;1.27;0.13;;;;;;;17.34;100.00;100857.09;5034984;28;20037;-48
2023/06/26 00:51:14;;;;;;;3.67;0.20;;;;;;;17.27;100.00;100856.34;5026209;28;20114;-48
2023/06/26 00:53:39;;;;;;;3.33;0.88;;;;;;;17.23;100.00;100864.03;5027763;28;20040;-46
2023/06/26 00:56:05;;;;;;;0.17;0.10;;;;;;;17.18;100.00;100863.91;5022433;28;20148;-48
2023/06/26 00:58:30;;;;;;;6.35;0.98;;;;;;;17.25;100.00;100863.81;5036508;28;20135;-45
2023/06/26 01:00:56;;;;;;;0.32;0.25;;;;;;;17.26;100.00;100862.78;5022707;28;20102;-48
2023/06/26 01:03:25;;;;;;;1.52;0.70;;;;;;;17.16;100.00;100858.75;5021903;28;20072;-50
2023/06/26 01:05:57;;;;;;;4.72;1.75;;;;;;;17.10;100.00;100869.56;5029481;28;20040;-51
2023/06/26 01:08:23;;;;;;;4.07;0.45;;;;;;;17.08;100.00;100877.81;5027679;28;20376;-51
2023/06/26 01:10:49;;;;;;;4.35;0.43;;;;;;;17.03;100.00;100875.00;5023356;28;20436;-46
2023/06/26 01:13:15;;;;;;;2.72;0.30;;;;;;;17.03;100.00;100872.31;5023044;28;20037;-49
2023/06/26 01:15:41;;;;;;;3.78;0.17;;;;;;;16.93;100.00;100872.81;5026267;28;20033;-49
2023/06/26 01:18:06;;;;;;;4.25;0.40;;;;;;;16.87;100.00;100887.13;5019043;28;20041;-50
2023/06/26 01:20:36;;;;;;;2.53;0.32;;;;;;;16.89;100.00;100885.03;5026778;28;20052;-45
2023/06/26 01:23:01;;;;;;;4.03;1.15;;;;;;;16.98;100.00;100886.38;5028653;28;20119;-46
2023/06/26 01:25:38;;;;;;;1.65;0.30;;;;;;;17.00;100.00;100891.50;5021259;28;20071;-46
2023/06/26 01:28:05;;;;;;;0.80;0.15;;;;;;;17.00;100.00;100889.66;5021704;28;20837;-46
2023/06/26 01:30:31;;;;;;;3.40;1.40;;;;;;;16.91;100.00;100887.47;5023304;28;20140;-45
2023/06/26 01:32:57;;;;;;;1.55;0.32;;;;;;;16.84;100.00;100894.78;5018465;28;20033;-45
2023/06/26 01:35:22;;;;;;;2.40;0.90;;;;;;;16.85;100.00;100894.56;5019773;28;20574;-48
2023/06/26 01:37:47;;;;;;;3.50;0.20;;;;;;;16.87;100.00;100897.03;5019226;28;20094;-46
2023/06/26 01:40:13;;;;;;;9.43;0.63;;;;;;;16.87;100.00;100897.03;5022826;28;20138;-46
2023/06/26 01:42:39;;;;;;;2.75;1.08;;;;;;;16.71;100.00;100893.84;5021086;28;20022;-48
2023/06/26 01:45:15;;;;;;;3.88;0.63;;;;;;;16.62;100.00;100895.16;5022461;28;20048;-51
2023/06/26 01:47:46;;;;;;;1.08;0.50;;;;;;;16.60;100.00;100899.94;5020434;28;20033;-46
2023/06/26 01:50:16;;;;;;;1.40;0.28;;;;;;;16.60;100.00;100901.78;5023047;28;20587;-49
2023/06/26 01:53:07;;;;;;;2.85;0.90;;;;;;;16.54;100.00;100903.47;5016789;28;20067;-51
2023/06/26 01:55:42;;;;;;;8.45;2.58;;;;;;;16.47;100.00;100902.72;5022208;28;20044;-53
2023/06/26 01:58:08;;;;;;;3.65;1.15;;;;;;;16.49;100.00;100914.03;5017560;28;20293;-51
2023/06/26 02:00:35;;;;;;;2.42;0.52;;;;;;;16.54;100.00;100909.66;5015127;28;20045;-49
2023/06/26 02:03:01;;;;;;;5.15;1.85;;;;;;;16.49;100.00;100895.28;5018244;28;20614;-48
2023/06/26 02:05:26;;;;;;;7.45;0.30;;;;;;;16.44;100.00;100905.84;5023771;28;20038;-50
2023/06/26 02:07:51;;;;;;;5.10;0.45;;;;;;;16.35;100.00;100894.59;5022438;28;20037;-46
2023/06/26 02:10:17;;;;;;;1.92;0.38;;;;;;;16.32;100.00;100905.75;5024026;28;20938;-50
2023/06/26 02:12:42;;;;;;;3.30;0.20;;;;;;;16.27;100.00;100902.91;5014391;28;20037;-47
2023/06/26 02:15:08;;;;;;;6.40;0.75;;;;;;;16.17;100.00;100899.91;5019350;28;20041;-47
2023/06/26 02:17:34;;;;;;;2.63;0.82;;;;;;;16.06;100.00;100904.91;5024349;28;20106;-49
2023/06/26 02:19:59;;;;;;;2.28;0.93;;;;;;;16.01;100.00;100903.94;5017780;28;20687;-50
2023/06/26 02:22:25;;;;;;;1.27;0.20;;;;;;;15.93;100.00;100899.66;5026262;28;20955;-50
2023/06/26 02:24:50;;;;;;;0.20;0.17;;;;;;;15.92;100.00;100912.19;5025358;28;20063;-50
2023/06/26 02:27:15;;;;;;;4.65;0.63;;;;;;;15.97;100.00;100910.72;5026439;28;20064;-50
2023/06/26 02:29:41;;;;;;;5.13;1.02;;;;;;;15.91;100.00;100913.22;5026607;28;20120;-48
2023/06/26 02:32:07;;;;;;;1.52;0.38;;;;;;;15.89;100.00;100917.97;5034583;28;20094;-45
2023/06/26 02:34:33;;;;;;;2.38;0.45;;;;;;;15.86;100.00;100912.25;5039196;28;20293;-45
2023/06/26 02:37:00;;;;;;;4.82;1.15;;;;;;;15.89;100.00;100909.94;5039356;28;20037;-44
2023/06/26 02:39:26;;;;;;;5.10;0.40;;;;;;;15.97;100.00;100924.09;5039435;28;20538;-45
2023/06/26 02:41:51;;;;;;;2.38;0.40;;;;;;;15.97;100.00;100921.44;5033952;28;20365;-45
2023/06/26 02:44:16;;;;;;;2.38;0.40;;;;;;;15.92;100.00;100919.41;5031995;28;20031;-48
2023/06/26 02:46:42;;;;;;;3.15;0.28;;;;;;;15.83;100.00;100926.88;5040923;28;20106;-47
2023/06/26 02:49:07;;;;;;;1.73;0.30;;;;;;;15.88;100.00;100929.72;5035242;28;20475;-50
2023/06/26 02:51:33;;;;;;;10.82;0.80;;;;;;;15.90;100.00;100930.31;5030201;28;20041;-46
2023/06/26 02:53:58;;;;;;;0.90;0.10;;;;;;;15.86;100.00;100918.41;5039736;28;20822;-49
2023/06/26 02:56:24;;;;;;;2.47;0.10;;;;;;;15.80;100.00;100919.28;5034238;28;20033;-47
2023/06/26 02:58:49;;;;;;;1.45;0.70;;;;;;;15.76;100.00;100931.41;5036460;28;20040;-51
2023/06/26 03:01:14;;;;;;;5.22;1.23;;;;;;;15.79;100.00;100935.53;5044871;28;20057;-47
2023/06/26 03:03:41;;;;;;;0.65;0.60;;;;;;;15.82;100.00;100935.09;5038564;28;20026;-49
2023/06/26 03:06:07;;;;;;;4.07;1.35;;;;;;;15.85;100.00;100924.81;5038542;28;20545;-47
2023/06/26 03:08:33;;;;;;;2.42;0.43;;;;;;;15.79;100.00;100927.50;5034911;28;20056;-45
2023/06/26 03:10:59;;;;;;;2.33;0.85;;;;;;;15.75;100.00;100936.97;5033738;28;20068;-45
2023/06/26 03:13:24;;;;;;;2.60;0.43;;;;;;;15.72;100.00;100934.72;5036892;28;20068;-48
2023/06/26 03:15:49;;;;;;;3.10;0.95;;;;;;;15.68;100.00;100942.34;5037482;28;20037;-50
2023/06/26 03:18:14;;;;;;;1.55;0.63;;;;;;;15.69;100.00;100942.16;5035868;28;20037;-50
2023/06/26 03:20:40;;;;;;;2.58;1.23;;;;;;;15.70;100.00;100941.13;5037034;28;20033;-46
2023/06/26 03:23:05;;;;;;;6.10;0.75;;;;;;;15.80;100.00;100954.03;5040979;28;20129;-48
2023/06/26 03:25:30;;;;;;;2.80;0.40;;;;;;;15.78;100.00;100947.25;5037763;28;21480;-48
2023/06/26 03:27:56;;;;;;;4.13;0.63;;;;;;;15.77;100.00;100954.44;5033769;28;20520;-50
2023/06/26 03:30:21;;;;;;;4.00;0.50;;;;;;;15.67;100.00;100952.22;5038302;28;20033;-50
2023/06/26 03:32:46;;;;;;;2.38;0.52;;;;;;;15.67;100.00;100956.75;5034550;28;20673;-47
2023/06/26 03:35:12;;;;;;;4.00;0.57;;;;;;;15.69;100.00;100957.34;5034748;28;20112;-47
2023/06/26 03:37:37;;;;;;;1.05;0.32;;;;;;;15.61;100.00;100957.56;5036805;28;20083;-49
2023/06/26 03:40:04;;;;;;;3.10;1.13;;;;;;;15.62;100.00;100952.03;5037624;28;20043;-50
2023/06/26 03:42:30;;;;;;;3.22;0.40;;;;;;;15.66;100.00;100963.09;5038877;28;20051;-45
2023/06/26 03:44:55;;;;;;;5.45;1.38;;;;;;;15.63;100.00;100958.19;5034698;28;20562;-50
2023/06/26 03:47:20;;;;;;;1.95;0.30;;;;;;;15.49;100.00;100968.94;5035796;28;20150;-50
2023/06/26 03:49:45;;;;;;;1.70;0.57;;;;;;;15.39;100.00;100971.25;5031792;28;20076;-50
2023/06/26 03:52:11;;;;;;;1.10;0.70;;;;;;;15.38;100.00;100971.44;5034052;28;20086;-46
2023/06/26 03:54:36;;;;;;;2.75;0.50;;;;;;;15.31;100.00;100984.84;5034771;28;20036;-49
2023/06/26 03:57:02;;;;;;;3.05;1.55;;;;;;;15.19;100.00;100992.66;5036239;28;20029;-46
2023/06/26 03:59:27;;;;;;;4.10;1.10;;;;;;;15.08;100.00;100989.81;5038412;28;20148;-47
2023/06/26 04:01:53;;;;;;;2.15;0.47;;;;;;;14.97;100.00;100988.59;5037125;28;20054;-47
2023/06/26 04:04:18;;;;;;;1.17;0.63;;;;;;;14.84;100.00;100994.75;5040776;28;20029;-49
2023/06/26 04:06:43;;;;;;;3.00;1.17;;;;;;;14.83;100.00;100987.78;5041681;28;20025;-50
2023/06/26 04:09:09;;;;;;;1.42;0.20;;;;;;;14.77;100.00;100991.28;5033235;28;20048;-49
2023/06/26 04:11:34;;;;;;;2.63;0.40;;;;;;;14.80;100.00;100982.88;5035830;28;20033;-49
2023/06/26 04:13:59;;;;;;;4.45;0.77;;;;;;;14.80;100.00;100986.34;5039468;28;20060;-46
2023/06/26 04:16:25;;;;;;;0.77;0.40;;;;;;;14.83;100.00;100982.44;5032801;28;20041;-49
2023/06/26 04:18:52;;;;;;;1.30;0.40;;;;;;;14.77;100.00;100989.44;5032869;28;20032;-49
2023/06/26 04:21:18;;;;;;;4.43;0.52;;;;;;;14.69;100.00;100995.00;5036526;28;20027;-51
2023/06/26 04:23:43;;;;;;;2.45;0.55;;;;;;;14.69;100.00;100986.13;5045349;28;20419;-45
2023/06/26 04:26:08;;;;;;;6.28;0.90;;;;;;;14.73;100.00;100998.06;5034387;28;20474;-51
2023/06/26 04:28:34;;;;;;;2.70;0.90;;;;;;;14.71;100.00;101006.25;5040924;28;20481;-45
2023/06/26 04:31:01;;;;;;;3.40;1.17;;;;;;;14.65;100.00;101006.28;5037372;28;20056;-50
2023/06/26 04:33:27;;;;;;;1.40;0.98;;;;;;;14.60;100.00;101010.38;5041322;28;20473;-48
2023/06/26 04:35:53;;;;;;;0.50;0.50;;;;;;;14.68;100.00;101016.53;5033320;28;20033;-45
2023/06/26 04:38:19;;;;;;;4.03;1.85;;;;;;;14.73;100.00;101022.06;5036591;28;20034;-51
2023/06/26 04:40:44;;;;;;;4.97;0.40;;;;;;;14.79;100.00;101019.41;5038066;28;20029;-46
2023/06/26 04:43:10;;;;;;;0.68;0.45;;;;;;;14.73;100.00;101024.75;5033790;28;20098;-49
2023/06/26 04:45:35;;;;;;;1.75;1.05;;;;;;;14.75;100.00;101028.03;5035362;28;20033;-49
2023/06/26 04:48:01;;;;;;;6.90;0.77;;;;;;;14.94;100.00;101018.38;5033421;28;20043;-50
2023/06/26 04:50:28;;;;;;;3.90;0.32;;;;;;;15.08;100.00;101021.88;5035113;28;20491;-45
2023/06/26 04:52:54;;;;;;;6.93;0.68;;;;;;;15.21;100.00;101033.34;5036716;28;20041;-50
2023/06/26 04:55:21;;;;;;;0.75;0.40;;;;;;;15.36;100.00;101033.13;5030896;28;20035;-48
2023/06/26 04:57:46;;;;;;;1.02;0.47;;;;;;;15.36;100.00;101030.44;5035178;28;20060;-48
2023/06/26 05:00:13;;;;;;;4.20;1.95;;;;;;;15.36;100.00;101030.44;5034316;28;20435;-47
2023/06/26 05:02:38;;;;;;;3.78;1.27;;;;;;;15.39;100.00;101040.72;5034362;28;20037;-50
2023/06/26 05:05:03;;;;;;;1.98;0.32;;;;;;;15.50;100.00;101036.56;5032778;28;20390;-45
2023/06/26 05:07:29;;;;;;;1.23;0.30;;;;;;;15.58;100.00;101035.53;5033775;28;20108;-48
2023/06/26 05:09:55;;;;;;;3.60;1.45;;;;;;;15.63;100.00;101030.38;5034559;28;20381;-47
2023/06/26 05:12:20;;;;;;;4.95;0.50;;;;;;;15.69;100.00;101042.91;5026129;28;20037;-50
2023/06/26 05:14:46;;;;;;;5.78;0.50;;;;;;;15.78;100.00;101040.84;5037213;28;20025;-50
2023/06/26 05:17:13;;;;;;;2.15;0.30;;;;;;;15.77;100.00;101040.00;5034816;28;20116;-46
2023/06/26 05:19:39;;;;;;;4.07;0.63;;;;;;;15.89;100.00;101038.31;5030203;28;20041;-48
2023/06/26 05:22:07;;;;;;;3.00;0.50;;;;;;;15.96;100.00;101045.50;5036818;28;20058;-47
2023/06/26 05:24:34;;;;;;;2.55;0.50;;;;;;;16.09;100.00;101056.13;5031199;28;20037;-47
2023/06/26 05:27:00;;;;;;;4.45;1.15;;;;;;;16.15;100.00;101055.25;5036172;28;20304;-47
2023/06/26 05:29:26;;;;;;;3.70;0.50;;;;;;;16.17;100.00;101055.88;5037520;28;20422;-53
2023/06/26 05:31:53;;;;;;;6.97;0.40;;;;;;;16.27;100.00;101063.44;5038174;28;20032;-50
2023/06/26 05:34:22;;;;;;;6.45;1.38;;;;;;;16.23;100.00;101078.28;5034507;28;20148;-47
2023/06/26 05:36:50;;;;;;;2.33;0.47;;;;;;;16.40;100.00;101070.56;5036624;28;20394;-47
2023/06/26 05:39:15;;;;;;;1.83;0.57;;;;;;;16.50;100.00;101081.63;5039062;28;20057;-48
2023/06/26 05:41:41;;;;;;;6.68;0.50;;;;;;;16.64;100.00;101080.50;5039588;28;20577;-50
2023/06/26 05:44:06;;;;;;;7.60;0.47;;;;;;;16.71;100.00;101081.28;5042596;28;20083;-51
2023/06/26 05:46:32;;;;;;;12.43;1.95;;;;;;;16.83;100.00;101064.53;5033421;28;20025;-53
2023/06/26 05:48:58;;;;;;;1.33;0.47;;;;;;;16.82;100.00;101066.38;5038518;28;20108;-48
2023/06/26 05:51:23;;;;;;;9.65;1.15;;;;;;;16.84;100.00;101063.50;5038115;28;20494;-47
2023/06/26 05:53:49;;;;;;;7.18;1.45;;;;;;;16.89;100.00;101059.13;5034357;28;20063;-49
2023/06/26 05:56:15;;;;;;;6.47;0.70;;;;;;;16.96;100.00;101059.06;5037086;28;20040;-53
2023/06/26 05:58:42;;;;;;;5.32;0.82;;;;;;;17.06;100.00;101062.06;5035505;28;20037;-50
2023/06/26 06:01:08;;;;;;;2.22;0.90;;;;;;;17.18;100.00;101054.13;5036750;28;20656;-51
2023/06/26 06:03:33;;;;;;;3.78;0.50;;;;;;;17.18;100.00;101057.63;5039245;28;20031;-48
2023/06/26 06:05:58;;;;;;;4.47;0.50;;;;;;;17.13;100.00;101051.31;5040141;28;20025;-46
2023/06/26 06:08:24;;;;;;;2.65;0.80;;;;;;;17.19;100.00;101061.97;5034813;28;20032;-54
2023/06/26 06:10:49;;;;;;;4.85;0.50;;;;;;;17.32;100.00;101065.53;5041863;28;20493;-50
2023/06/26 06:13:14;;;;;;;2.67;0.73;;;;;;;17.37;100.00;101063.84;5039192;28;20035;-56
2023/06/26 06:15:40;;;;;;;1.92;1.10;;;;;;;17.49;100.00;101058.56;5037624;28;20079;-51
2023/06/26 06:18:05;;;;;;;5.03;0.52;;;;;;;17.50;100.00;101057.50;5040127;28;20032;-50
2023/06/26 06:20:30;;;;;;;2.53;1.27;;;;;;;17.63;100.00;101067.28;5035930;28;20082;-54
2023/06/26 06:22:55;;;;;;;7.32;0.68;;;;;;;17.75;100.00;101072.72;5034465;28;20508;-53
2023/06/26 06:25:21;;;;;;;2.60;0.85;;;;;;;17.81;100.00;101075.38;5040080;28;20492;-58
2023/06/26 06:27:46;;;;;;;8.52;0.52;;;;;;;17.78;100.00;101080.31;5043998;28;20078;-51
2023/06/26 06:30:12;;;;;;;2.35;0.38;;;;;;;17.89;100.00;101074.25;5033681;28;20052;-58
2023/06/26 06:32:37;;;;;;;3.42;1.02;;;;;;;17.89;100.00;101074.25;5047772;28;20074;-58
2023/06/26 06:35:09;;;;;;;2.13;0.50;;;;;;;17.97;100.00;101079.31;5039050;28;20142;-46
2023/06/26 06:37:34;;;;;;;1.77;0.15;;;;;;;18.13;100.00;101083.22;5036800;28;20475;-46
2023/06/26 06:40:00;;;;;;;2.78;0.70;;;;;;;18.11;100.00;101090.69;5037939;28;20025;-46
2023/06/26 06:42:25;;;;;;;4.85;1.90;;;;;;;18.22;100.00;101087.22;5034329;28;20029;-51
2023/06/26 06:44:50;;;;;;;3.75;0.28;;;;;;;18.23;100.00;101088.88;5033066;28;20454;-50
2023/06/26 06:47:15;;;;;;;6.82;1.10;;;;;;;18.34;100.00;101084.59;5026993;28;20482;-55
2023/06/26 06:49:41;;;;;;;3.83;0.68;;;;;;;18.47;100.00;101094.31;5036040;28;20373;-54
2023/06/26 06:52:07;;;;;;;2.92;0.20;;;;;;;18.68;100.00;101087.63;5037406;28;20423;-53
2023/06/26 06:54:51;;;;;;;3.33;0.25;;;;;;;18.68;100.00;101093.81;5034011;28;20041;-48
2023/06/26 06:57:16;;;;;;;1.08;0.30;;;;;;;18.78;100.00;101090.59;5030063;28;20175;-57
2023/06/26 06:59:42;;;;;;;2.78;0.55;;;;;;;18.91;100.00;101095.75;5039602;28;20119;-57
2023/06/26 07:02:07;;;;;;;5.57;0.88;;;;;;;18.99;100.00;101101.84;5035756;28;20057;-57
2023/06/26 07:04:32;;;;;;;2.50;0.60;;;;;;;18.98;100.00;101105.59;5033520;28;20033;-60
2023/06/26 07:06:58;;;;;;;3.38;0.20;;;;;;;19.11;100.00;101103.50;5039896;28;20028;-56
2023/06/26 07:09:23;;;;;;;3.80;1.10;;;;;;;19.33;100.00;101109.09;5039309;28;20407;-56
2023/06/26 07:11:48;;;;;;;2.28;0.25;;;;;;;19.40;100.00;101101.75;5033239;28;20181;-47
2023/06/26 07:14:13;;;;;;;3.92;0.65;;;;;;;19.47;100.00;101108.88;5036477;28;20033;-51
2023/06/26 07:16:39;;;;;;;2.22;0.98;;;;;;;19.59;100.00;101112.34;5036908;28;21024;-58
2023/06/26 07:19:04;;;;;;;6.90;0.47;;;;;;;19.57;100.00;101104.53;5042818;28;20438;-50
2023/06/26 07:21:29;;;;;;;6.43;1.35;;;;;;;19.62;100.00;101119.97;5035444;28;20034;-50
2023/06/26 07:23:55;;;;;;;4.47;1.08;;;;;;;19.66;100.00;101118.44;5035816;28;20542;-57
2023/06/26 07:26:21;;;;;;;1.65;0.43;;;;;;;19.77;100.00;101114.13;5037022;28;20028;-47
2023/06/26 07:28:48;;;;;;;3.65;0.35;;;;;;;19.82;100.00;101123.13;5035048;28;20052;-52
2023/06/26 07:31:14;;;;;;;2.25;0.63;;;;;;;19.85;100.00;101124.50;5029141;28;20061;-53
2023/06/26 07:33:40;;;;;;;9.55;0.30;;;;;;;19.93;100.00;101120.63;5027644;28;20048;-63
2023/06/26 07:36:05;;;;;;;4.13;0.73;;;;;;;19.99;100.00;101123.22;5030982;28;20029;-54
2023/06/26 07:38:31;;;;;;;3.58;0.10;;;;;;;20.00;100.00;101126.72;5035349;28;20059;-50
2023/06/26 07:40:56;;;;;;;2.05;0.22;;;;;;;19.96;100.00;101112.13;5029333;28;20752;-57
2023/06/26 07:43:22;;;;;;;3.47;0.80;;;;;;;20.01;100.00;101136.44;5027550;28;20418;-51
2023/06/26 07:45:48;;;;;;;4.03;0.40;;;;;;;20.05;100.00;101140.28;5033658;28;20075;-55
2023/06/26 07:48:13;;;;;;;2.63;0.52;;;;;;;20.08;100.00;101137.09;5031912;28;20394;-54
2023/06/26 07:50:39;;;;;;;2.95;0.20;;;;;;;20.26;100.00;101133.44;5035611;28;21285;-56
2023/06/26 07:53:05;;;;;;;2.47;0.30;;;;;;;20.16;100.00;101135.91;5029758;28;20064;-53
2023/06/26 07:55:31;;;;;;;5.28;0.20;;;;;;;20.03;100.00;101139.69;5036249;28;20060;-55
2023/06/26 07:57:56;;;;;;;8.93;1.23;;;;;;;20.09;100.00;101135.25;5030105;28;20204;-58
2023/06/26 08:00:22;;;;;;;4.10;0.47;;;;;;;20.39;100.00;101146.59;5025892;28;20484;-56
2023/06/26 08:02:47;;;;;;;10.18;1.55;;;;;;;20.55;100.00;101137.00;5037124;28;20025;-55
2023/06/26 08:05:13;;;;;;;3.35;1.05;;;;;;;20.75;100.00;101143.78;5031938;28;20026;-54
2023/06/26 08:07:39;;;;;;;3.83;0.32;;;;;;;20.69;100.00;101154.47;5037808;28;20025;-54
2023/06/26 08:10:05;;;;;;;3.22;0.30;;;;;;;20.98;100.00;101159.81;5030986;28;20051;-54
2023/06/26 08:12:30;;;;;;;1.52;0.10;;;;;;;21.33;100.00;101148.00;5042452;28;20041;-54
2023/06/26 08:14:56;;;;;;;0.73;0.10;;;;;;;21.32;100.00;101151.75;5033539;28;20025;-50
2023/06/26 08:17:21;;;;;;;5.25;1.25;;;;;;;21.29;100.00;101149.53;5039378;28;20838;-57
2023/06/26 08:19:46;;;;;;;7.00;1.08;;;;;;;21.19;98.62;101143.97;5037174;28;20036;-53
2023/06/26 08:22:12;;;;;;;4.32;0.75;;;;;;;21.20;98.01;101137.56;5041426;28;20032;-54
2023/06/26 08:24:37;;;;;;;0.43;0.00;;;;;;;21.48;100.00;101134.78;5035552;28;20042;-54
2023/06/26 08:27:03;;;;;;;0.75;0.40;;;;;;;21.51;100.00;101138.84;5028636;28;20060;-55
2023/06/26 08:29:28;;;;;;;0.95;0.03;;;;;;;21.46;98.21;101181.94;5038768;28;20107;-59
2023/06/26 08:31:54;;;;;;;2.40;0.20;;;;;;;21.62;94.66;101162.22;5035793;28;20483;-55
2023/06/26 08:34:19;;;;;;;0.30;0.17;;;;;;;21.53;89.36;101175.31;5030378;28;20490;-56
2023/06/26 08:36:44;;;;;;;1.85;0.20;;;;;;;21.56;89.81;101169.41;5049213;28;20482;-58
2023/06/26 08:39:10;;;;;;;0.30;0.00;;;;;;;21.47;90.25;101160.09;5033817;28;20389;-54
2023/06/26 08:41:36;;;;;;;1.20;0.50;;;;;;;21.46;91.93;101166.56;5027356;28;20040;-56
2023/06/26 08:44:03;;;;;;;0.93;0.25;;;;;;;21.36;89.33;101177.16;5032579;28;20052;-57
2023/06/26 08:46:28;;;;;;;2.47;0.20;;;;;;;21.26;89.80;101171.63;5033275;28;20025;-53
2023/06/26 08:49:01;;;;;;;4.03;0.30;;;;;;;21.15;90.08;101173.31;5032230;28;20112;-53
2023/06/26 08:51:28;;;;;;;1.38;0.63;;;;;;;21.35;89.81;101179.06;5030183;28;20037;-49
2023/06/26 08:54:07;;;;;;;2.83;0.20;;;;;;;21.27;90.32;101186.72;5039460;28;20036;-55
2023/06/26 08:56:37;;;;;;;1.65;0.32;;;;;;;21.21;88.24;101174.22;5030108;28;20041;-52
2023/06/26 08:59:04;;;;;;;3.35;0.35;;;;;;;21.22;90.23;101178.53;5029269;28;20027;-57
2023/06/26 09:01:30;;;;;;;2.88;0.45;;;;;;;21.06;88.29;101180.97;5032407;28;20045;-50
2023/06/26 09:03:56;;;;;;;3.15;0.38;;;;;;;21.05;89.72;101195.53;5030653;28;20025;-53
2023/06/26 09:06:21;;;;;;;3.25;0.40;;;;;;;21.46;90.40;101190.84;5026084;28;20379;-56
2023/06/26 09:08:47;;;;;;;1.23;0.15;;;;;;;21.79;89.09;101183.78;5030995;28;20029;-54
2023/06/26 09:11:12;;;;;;;3.65;0.30;;;;;;;22.00;90.20;101191.06;5029972;28;20056;-59
2023/06/26 09:13:37;;;;;;;1.52;0.40;;;;;;;22.30;88.90;101195.25;5034373;28;20064;-56
2023/06/26 09:16:07;;;;;;;0.20;0.13;;;;;;;22.59;87.37;101197.75;5029355;28;20032;-49
2023/06/26 09:18:33;;;;;;;0.80;0.03;;;;;;;23.17;86.85;101188.06;5037271;28;20040;-50
2023/06/26 09:20:58;;;;;;;1.35;1.10;;;;;;;22.84;84.39;101187.19;5032936;28;20041;-50
2023/06/26 09:23:23;;;;;;;4.32;0.43;;;;;;;22.93;85.81;101192.16;5026811;28;20025;-50
2023/06/26 09:25:51;;;;;;;0.75;0.00;;;;;;;22.85;85.86;101190.72;5034032;28;20032;-52
2023/06/26 09:28:16;;;;;;;5.25;0.00;;;;;;;22.72;84.72;101185.72;5036786;28;20099;-52
2023/06/26 09:30:42;;;;;;;3.78;0.75;;;;;;;22.39;86.05;101188.34;5026600;28;20499;-45
2023/06/26 09:33:18;;;;;;;1.83;0.13;;;;;;;22.36;84.81;101186.16;5024083;28;20037;-54
2023/06/26 09:35:44;;;;;;;0.63;0.10;;;;;;;22.55;84.67;101189.34;5031306;28;20494;-52
2023/06/26 09:38:11;;;;;;;0.20;0.10;;;;;;;22.66;82.89;101192.94;5031172;28;20042;-59
2023/06/26 09:40:38;;;;;;;1.35;0.00;;;;;;;22.95;82.10;101179.16;5034211;28;20120;-50
2023/06/26 09:43:12;;;;;;;1.85;0.10;;;;;;;23.24;81.27;101174.31;5029534;28;20033;-58
2023/06/26 09:45:40;;;;;;;3.03;0.40;;;;;;;23.46;79.89;101187.72;5032541;28;20504;-53
2023/06/26 09:48:08;;;;;;;0.95;0.20;;;;;;;23.84;78.70;101186.66;5034710;28;21604;-46
2023/06/26 09:50:34;;;;;;;2.55;0.10;;;;;;;23.76;78.71;101197.19;5029466;28;20037;-58
2023/06/26 09:53:13;;;;;;;3.58;0.30;;;;;;;23.39;74.18;101197.97;5034511;28;20536;-58
2023/06/26 09:55:40;;;;;;;1.75;0.00;;;;;;;23.34;77.46;101195.22;5031250;28;20037;-60
2023/06/26 09:58:06;;;;;;;1.15;0.10;;;;;;;23.24;77.86;101193.25;5035279;28;20587;-53
2023/06/26 10:00:32;;;;;;;3.40;0.20;;;;;;;23.36;78.68;101191.16;5030222;28;20040;-57
2023/06/26 10:03:01;;;;;;;1.48;0.25;;;;;;;23.47;76.09;101192.91;5036356;28;20037;-59
2023/06/26 10:05:26;;;;;;;2.90;0.10;;;;;;;22.98;78.25;101205.75;5036444;28;20079;-55
2023/06/26 10:07:53;;;;;;;3.85;0.17;;;;;;;22.77;76.91;101197.41;5034154;28;20021;-51
2023/06/26 10:10:19;;;;;;;0.60;0.10;;;;;;;23.01;77.74;101189.81;5027188;28;20099;-57
2023/06/26 10:12:49;;;;;;;1.33;0.15;;;;;;;23.09;78.23;101204.75;5026501;28;20501;-55
2023/06/26 10:15:16;;;;;;;1.40;0.15;;;;;;;23.40;78.56;101191.50;5031783;28;20029;-54
2023/06/26 10:17:46;;;;;;;0.35;0.13;;;;;;;23.76;77.18;101210.72;5033518;28;20406;-57
2023/06/26 10:20:13;;;;;;;1.80;0.10;;;;;;;24.26;76.63;101187.66;5037649;28;20025;-57
2023/06/26 10:22:46;;;;;;;2.92;0.73;;;;;;;24.42;72.35;101196.66;5034809;28;20029;-52
2023/06/26 10:25:14;;;;;;;0.60;0.20;;;;;;;24.42;71.74;101211.03;5035242;28;20112;-60
2023/06/26 10:27:44;;;;;;;0.77;0.05;;;;;;;23.98;71.32;101219.47;5038962;28;20140;-55
2023/06/26 10:30:13;;;;;;;2.13;0.20;;;;;;;23.91;70.72;101225.16;5033602;28;20129;-51
2023/06/26 10:32:40;;;;;;;1.48;0.17;;;;;;;24.23;71.43;101215.28;5042231;28;20061;-50
2023/06/26 10:35:07;;;;;;;1.48;0.10;;;;;;;24.34;71.66;101217.78;5036890;28;20115;-54
2023/06/26 10:37:43;;;;;;;0.52;0.00;;;;;;;24.01;68.00;101229.81;5031145;28;20057;-54
2023/06/26 10:40:09;;;;;;;0.60;0.00;;;;;;;24.09;69.78;101225.81;5036851;28;20445;-56
2023/06/26 10:42:36;;;;;;;3.00;0.20;;;;;;;24.13;69.69;101221.47;5042323;28;20028;-48
2023/06/26 10:45:16;;;;;;;1.65;0.55;;;;;;;24.50;67.98;101225.97;5036808;28;20033;-57
2023/06/26 10:47:45;;;;;;;2.65;0.77;;;;;;;24.52;68.82;101219.19;5032328;28;20025;-50
2023/06/26 10:50:39;;;;;;;1.48;0.43;;;;;;;24.24;66.81;101214.19;5027475;28;20037;-50
2023/06/26 10:53:10;;;;;;;11.32;1.73;;;;;;;24.40;67.41;101224.03;5017353;28;20044;-54
2023/06/26 10:55:36;;;;;;;7.10;0.15;;;;;;;24.63;68.38;101221.94;5029475;28;20064;-54
2023/06/26 10:58:02;;;;;;;0.43;0.00;;;;;;;24.92;67.20;101220.41;5038605;28;20351;-50
2023/06/26 11:00:28;;;;;;;0.35;0.10;;;;;;;25.25;67.31;101231.84;5036735;28;20058;-50
2023/06/26 11:02:53;;;;;;;2.88;0.20;;;;;;;25.12;65.55;101230.47;5044614;28;20037;-54
2023/06/26 11:05:32;;;;;;;0.32;0.10;;;;;;;24.79;63.78;101226.34;5033327;28;20136;-51
2023/06/26 11:08:05;;;;;;;3.15;0.22;;;;;;;24.50;63.68;101226.81;5039480;28;20060;-55
2023/06/26 11:10:48;;;;;;;4.57;0.08;;;;;;;24.51;62.23;101239.28;5031303;28;20387;-58
2023/06/26 11:13:14;;;;;;;2.75;0.10;;;;;;;24.25;64.26;101215.84;5027486;28;20037;-57
2023/06/26 11:15:43;;;;;;;1.83;0.15;;;;;;;24.44;64.28;101221.59;5037951;28;20096;-51